createdAt,value
2023-03-18T00:02:09.520Z,52.52
2023-03-18T00:04:36.206Z,52.79
2023-03-18T00:07:03.412Z,52.56
2023-03-18T00:09:30.207Z,52.31
2023-03-18T00:11:56.864Z,52.02
2023-03-18T00:14:24.248Z,52.78
2023-03-18T00:16:50.976Z,51.96
2023-03-18T00:19:17.709Z,52.36
2023-03-18T00:21:44.382Z,51.58
2023-03-18T00:24:11.119Z,51.64
2023-03-18T00:26:38.481Z,52.23
2023-03-18T00:29:05.214Z,52.91
2023-03-18T00:31:31.869Z,53.68
2023-03-18T00:33:58.503Z,53.67
2023-03-18T00:36:25.396Z,54.11
2023-03-18T00:38:54.030Z,52.91
2023-03-18T00:41:20.668Z,53.19
2023-03-18T00:43:49.191Z,52.80
2023-03-18T00:46:25.216Z,52.38
2023-03-18T00:48:54.059Z,53.77
2023-03-18T00:51:23.106Z,52.41
2023-03-18T00:53:52.415Z,51.84
2023-03-18T00:56:21.811Z,52.16
2023-03-18T00:58:49.222Z,52.10
2023-03-18T01:01:16.818Z,51.86
2023-03-18T01:03:44.479Z,51.64
2023-03-18T01:06:16.482Z,51.86
2023-03-18T01:08:43.698Z,51.63
2023-03-18T01:11:11.001Z,51.79
2023-03-18T01:13:38.160Z,51.60
2023-03-18T01:16:05.952Z,51.11
2023-03-18T01:18:32.660Z,51.48
2023-03-18T01:20:59.304Z,52.79
2023-03-18T01:23:26.467Z,51.57
2023-03-18T01:25:53.450Z,52.36
2023-03-18T01:28:21.591Z,52.65
2023-03-18T01:30:49.058Z,51.64
2023-03-18T01:33:16.004Z,51.95
2023-03-18T01:35:42.932Z,52.49
2023-03-18T01:38:09.588Z,52.36
2023-03-18T01:40:38.081Z,52.35
2023-03-18T01:43:10.882Z,52.54
2023-03-18T01:45:37.519Z,53.66
2023-03-18T01:48:04.652Z,53.61
2023-03-18T01:50:34.866Z,53.33
2023-03-18T01:53:09.342Z,52.98
2023-03-18T01:55:38.401Z,52.38
2023-03-18T01:58:10.521Z,51.68
2023-03-18T02:00:42.188Z,52.10
2023-03-18T02:03:08.938Z,52.68
2023-03-18T02:05:35.870Z,52.00
2023-03-18T02:08:02.837Z,53.20
2023-03-18T02:10:31.593Z,53.38
2023-03-18T02:13:03.529Z,53.08
2023-03-18T02:15:31.494Z,52.67
2023-03-18T02:18:07.464Z,52.72
2023-03-18T02:20:52.779Z,53.53
2023-03-18T02:23:27.305Z,53.64
2023-03-18T02:26:20.430Z,53.17
2023-03-18T02:28:50.606Z,52.58
2023-03-18T02:31:19.165Z,51.37
2023-03-18T02:33:46.865Z,53.05
2023-03-18T02:36:25.048Z,52.86
2023-03-18T02:38:51.826Z,52.69
2023-03-18T02:41:25.131Z,52.26
2023-03-18T02:43:52.696Z,53.12
2023-03-18T02:46:48.476Z,52.34
2023-03-18T02:49:18.548Z,53.44
2023-03-18T02:51:45.396Z,53.48
2023-03-18T02:54:15.369Z,53.32
2023-03-18T02:56:43.437Z,54.08
2023-03-18T02:59:11.661Z,53.69
2023-03-18T03:01:39.662Z,54.07
2023-03-18T03:04:07.464Z,53.52
2023-03-18T03:06:35.062Z,54.63
2023-03-18T03:09:03.144Z,54.99
2023-03-18T03:11:30.262Z,55.23
2023-03-18T03:13:56.946Z,55.33
2023-03-18T03:16:23.576Z,55.52
2023-03-18T03:18:50.917Z,55.82
2023-03-18T03:21:17.613Z,55.47
2023-03-18T03:23:46.649Z,55.87
2023-03-18T03:26:14.351Z,56.51
2023-03-18T03:28:40.973Z,56.26
2023-03-18T03:31:07.650Z,56.33
2023-03-18T03:33:34.309Z,56.57
2023-03-18T03:36:00.938Z,57.17
2023-03-18T03:38:27.731Z,57.69
2023-03-18T03:40:54.474Z,58.23
2023-03-18T03:43:21.445Z,57.62
2023-03-18T03:45:48.050Z,57.19
2023-03-18T03:48:16.000Z,57.91
2023-03-18T03:50:42.754Z,56.94
2023-03-18T03:53:09.490Z,57.68
2023-03-18T03:55:36.539Z,57.17
2023-03-18T03:58:03.275Z,57.78
2023-03-18T04:00:30.422Z,57.50
2023-03-18T04:02:57.279Z,58.02
2023-03-18T04:05:24.701Z,57.63
2023-03-18T04:07:52.461Z,58.00
2023-03-18T04:10:20.918Z,57.13
2023-03-18T04:12:48.178Z,56.02
2023-03-18T04:15:16.797Z,56.75
2023-03-18T04:17:43.506Z,56.12
2023-03-18T04:20:10.891Z,56.76
2023-03-18T04:22:37.578Z,56.76
2023-03-18T04:25:05.200Z,56.06
2023-03-18T04:27:32.732Z,55.91
2023-03-18T04:29:59.531Z,54.30
2023-03-18T04:32:26.297Z,55.18
2023-03-18T04:34:52.990Z,56.11
2023-03-18T04:37:19.593Z,56.70
2023-03-18T04:39:48.025Z,56.58
2023-03-18T04:42:14.740Z,55.65
2023-03-18T04:44:41.480Z,55.41
2023-03-18T04:47:08.248Z,55.79
2023-03-18T04:49:35.163Z,56.62
2023-03-18T04:52:01.809Z,56.50
2023-03-18T04:54:28.394Z,56.43
2023-03-18T04:56:55.160Z,55.44
2023-03-18T04:59:21.809Z,55.82
2023-03-18T05:01:48.409Z,55.91
2023-03-18T05:04:15.210Z,56.88
2023-03-18T05:06:41.978Z,57.54
2023-03-18T05:09:08.861Z,56.54
2023-03-18T05:11:36.112Z,56.74
2023-03-18T05:14:02.789Z,57.89
2023-03-18T05:16:29.446Z,57.47
2023-03-18T05:18:56.554Z,57.53
2023-03-18T05:21:23.297Z,57.94
2023-03-18T05:23:49.933Z,57.97
2023-03-18T05:26:16.614Z,58.26
2023-03-18T05:28:43.229Z,59.62
2023-03-18T05:31:10.143Z,60.00
2023-03-18T05:33:36.824Z,60.49
2023-03-18T05:36:03.807Z,61.83
2023-03-18T05:38:30.432Z,61.86
2023-03-18T05:40:57.164Z,61.90
2023-03-18T05:43:23.804Z,61.51
2023-03-18T05:45:50.775Z,61.71
2023-03-18T05:48:17.565Z,62.36
2023-03-18T05:50:44.723Z,61.69
2023-03-18T05:53:12.326Z,61.83
2023-03-18T05:55:39.994Z,62.89
2023-03-18T05:58:07.351Z,62.99
2023-03-18T06:00:34.723Z,62.86
2023-03-18T06:03:02.292Z,62.15
2023-03-18T06:05:30.061Z,62.04
2023-03-18T06:07:59.795Z,62.07
2023-03-18T06:10:26.673Z,61.12
2023-03-18T06:12:54.077Z,62.12
2023-03-18T06:15:21.205Z,61.51
2023-03-18T06:17:48.392Z,62.58
2023-03-18T06:20:15.760Z,62.33
2023-03-18T06:22:42.637Z,62.67
2023-03-18T06:25:09.854Z,61.84
2023-03-18T06:27:36.528Z,62.72
2023-03-18T06:30:04.269Z,62.18
2023-03-18T06:32:31.725Z,61.29
2023-03-18T06:34:58.482Z,60.88
2023-03-18T06:37:25.130Z,60.65
2023-03-18T06:39:51.972Z,60.29
2023-03-18T06:42:18.607Z,57.35
2023-03-18T06:44:45.270Z,57.12
2023-03-18T06:47:12.108Z,56.94
2023-03-18T06:49:38.753Z,56.34
2023-03-18T06:52:05.494Z,55.75
2023-03-18T06:54:32.272Z,56.09
2023-03-18T06:56:58.949Z,56.38
2023-03-18T06:59:28.500Z,56.27
2023-03-18T07:01:55.240Z,56.91
2023-03-18T07:04:22.014Z,55.43
2023-03-18T07:06:48.755Z,55.86
2023-03-18T07:09:15.622Z,55.56
2023-03-18T07:11:42.947Z,56.42
2023-03-18T07:14:09.796Z,55.52
2023-03-18T07:16:36.464Z,54.60
2023-03-18T07:19:03.221Z,55.37
2023-03-18T07:21:29.966Z,55.00
2023-03-18T07:23:56.686Z,53.53
2023-03-18T07:26:23.414Z,54.62
2023-03-18T07:28:50.075Z,54.31
2023-03-18T07:31:16.833Z,54.20
2023-03-18T07:33:43.597Z,54.10
2023-03-18T07:36:10.376Z,53.27
2023-03-18T07:38:37.052Z,53.55
2023-03-18T07:41:06.917Z,52.10
2023-03-18T07:43:33.727Z,50.68
2023-03-18T07:46:00.332Z,51.20
2023-03-18T07:48:27.125Z,52.03
2023-03-18T07:50:53.782Z,51.65
2023-03-18T07:53:20.488Z,52.09
2023-03-18T07:55:47.181Z,51.84
2023-03-18T07:58:13.969Z,51.45
2023-03-18T08:00:41.154Z,48.84
2023-03-18T08:03:07.777Z,48.39
2023-03-18T08:05:34.761Z,47.15
2023-03-18T08:08:01.579Z,48.95
2023-03-18T08:10:28.265Z,50.01
2023-03-18T08:12:54.953Z,48.45
2023-03-18T08:15:22.416Z,47.53
2023-03-18T08:17:50.188Z,48.63
2023-03-18T08:20:16.970Z,47.54
2023-03-18T08:22:43.602Z,47.78
2023-03-18T08:25:10.252Z,48.12
2023-03-18T08:27:37.057Z,48.79
2023-03-18T08:30:04.246Z,48.46
2023-03-18T08:32:31.076Z,49.08
2023-03-18T08:34:57.837Z,47.14
2023-03-18T08:37:24.578Z,46.24
2023-03-18T08:39:51.218Z,46.32
2023-03-18T08:42:17.870Z,45.50
2023-03-18T08:44:44.497Z,46.62
2023-03-18T08:47:11.265Z,45.31
2023-03-18T08:49:37.975Z,44.04
2023-03-18T08:52:05.217Z,43.45
2023-03-18T08:54:31.826Z,43.71
2023-03-18T08:56:58.484Z,42.25
2023-03-18T08:59:25.223Z,43.52
2023-03-18T09:01:51.856Z,44.01
2023-03-18T09:04:18.661Z,42.42
2023-03-18T09:06:45.300Z,42.46
2023-03-18T09:09:12.016Z,43.56
2023-03-18T09:11:38.919Z,42.93
2023-03-18T09:14:05.520Z,42.65
2023-03-18T09:16:32.452Z,41.74
2023-03-18T09:18:59.183Z,41.37
2023-03-18T09:21:25.876Z,42.71
2023-03-18T09:23:52.545Z,43.28
2023-03-18T09:26:19.380Z,43.69
2023-03-18T09:28:45.997Z,42.71
2023-03-18T09:31:13.066Z,40.97
2023-03-18T09:33:39.770Z,39.35
2023-03-18T09:36:06.760Z,40.44
2023-03-18T09:38:33.447Z,40.29
2023-03-18T09:41:03.166Z,38.05
2023-03-18T09:43:53.578Z,40.42
2023-03-18T09:46:32.317Z,40.01
2023-03-18T09:49:13.021Z,40.25
2023-03-18T09:52:17.075Z,40.62
2023-03-18T09:54:50.052Z,40.29
2023-03-18T09:57:28.812Z,37.40
2023-03-18T10:00:02.114Z,39.44
2023-03-18T10:02:39.838Z,39.72
2023-03-18T10:05:24.544Z,40.53
2023-03-18T10:07:56.819Z,38.85
2023-03-18T10:10:40.849Z,38.10
2023-03-18T10:13:21.536Z,38.12
2023-03-18T10:15:53.556Z,38.70
2023-03-18T10:18:46.692Z,39.82
2023-03-18T10:21:44.822Z,37.92
2023-03-18T10:24:23.279Z,37.70
2023-03-18T10:26:57.481Z,38.70
2023-03-18T10:29:42.108Z,37.25
2023-03-18T10:32:49.172Z,38.36
2023-03-18T10:35:27.102Z,37.33
2023-03-18T10:38:09.915Z,37.90
2023-03-18T10:40:39.507Z,38.46
2023-03-18T10:43:16.680Z,36.77
2023-03-18T10:45:46.267Z,39.03
2023-03-18T10:48:21.041Z,36.61
2023-03-18T10:51:21.481Z,38.01
2023-03-18T10:53:57.151Z,36.42
2023-03-18T10:56:23.970Z,37.02
2023-03-18T10:58:50.711Z,35.51
2023-03-18T11:01:22.716Z,37.37
2023-03-18T11:04:01.437Z,37.17
2023-03-18T11:06:39.882Z,37.93
2023-03-18T11:09:10.098Z,36.67
2023-03-18T11:11:40.868Z,36.74
2023-03-18T11:14:13.944Z,36.66
2023-03-18T11:16:46.394Z,36.89
2023-03-18T11:19:41.069Z,37.97
2023-03-18T11:22:10.811Z,36.86
2023-03-18T11:24:40.732Z,37.54
2023-03-18T11:27:13.717Z,36.75
2023-03-18T11:29:43.393Z,36.11
2023-03-18T11:32:31.477Z,38.16
2023-03-18T11:35:00.955Z,40.42
2023-03-18T11:37:37.371Z,37.99
2023-03-18T11:40:20.189Z,38.86
2023-03-18T11:42:49.666Z,38.02
2023-03-18T11:45:46.887Z,35.36
2023-03-18T11:48:22.211Z,37.56
2023-03-18T11:51:27.482Z,38.75
2023-03-18T11:54:29.037Z,36.33
2023-03-18T11:57:02.479Z,37.52
2023-03-18T11:59:34.893Z,37.59
2023-03-18T12:02:30.728Z,38.58
2023-03-18T12:05:18.880Z,38.16
2023-03-18T12:07:51.299Z,38.92
2023-03-18T12:10:33.277Z,37.87
2023-03-18T12:13:24.502Z,37.96
2023-03-18T12:15:56.801Z,39.10
2023-03-18T12:18:49.120Z,39.65
2023-03-18T12:21:49.886Z,39.99
2023-03-18T12:24:22.481Z,36.81
2023-03-18T12:27:05.811Z,38.06
2023-03-18T12:29:54.043Z,39.24
2023-03-18T12:32:45.399Z,38.20
2023-03-18T12:35:49.465Z,36.90
2023-03-18T12:38:31.047Z,37.26
2023-03-18T12:41:26.675Z,37.49
2023-03-18T12:44:05.912Z,36.68
2023-03-18T12:46:41.336Z,37.44
2023-03-18T12:49:38.803Z,37.63
2023-03-18T12:52:08.849Z,36.90
2023-03-18T12:54:50.553Z,38.66
2023-03-18T12:57:48.339Z,37.23
2023-03-18T13:00:19.294Z,37.69
2023-03-18T13:02:53.021Z,37.19
2023-03-18T13:05:27.175Z,37.14
2023-03-18T13:08:13.121Z,38.66
2023-03-18T13:10:41.551Z,38.04
2023-03-18T13:13:10.475Z,37.16
2023-03-18T13:15:51.672Z,38.93
2023-03-18T13:18:21.219Z,37.20
2023-03-18T13:20:51.461Z,37.57
2023-03-18T13:23:50.404Z,37.22
2023-03-18T13:26:52.120Z,38.64
2023-03-18T13:29:27.751Z,38.47
2023-03-18T13:32:03.374Z,38.86
2023-03-18T13:35:07.214Z,38.16
2023-03-18T13:38:05.664Z,37.22
2023-03-18T13:40:56.866Z,37.03
2023-03-18T13:43:25.597Z,38.56
2023-03-18T13:45:54.093Z,40.65
2023-03-18T13:48:32.829Z,39.01
2023-03-18T13:51:34.709Z,38.51
2023-03-18T13:54:04.155Z,38.50
2023-03-18T13:56:48.738Z,39.63
2023-03-18T13:59:33.436Z,38.12
2023-03-18T14:02:24.762Z,38.41
2023-03-18T14:04:52.346Z,37.31
2023-03-18T14:07:23.076Z,35.59
2023-03-18T14:10:17.317Z,37.52
2023-03-18T14:12:46.476Z,36.22
2023-03-18T14:15:15.988Z,36.43
2023-03-18T14:17:47.907Z,37.33
2023-03-18T14:20:17.255Z,36.73
2023-03-18T14:22:46.101Z,37.05
2023-03-18T14:25:19.099Z,37.34
2023-03-18T14:27:55.041Z,37.52
2023-03-18T14:30:44.372Z,37.15
2023-03-18T14:33:19.842Z,37.86
2023-03-18T14:35:46.487Z,37.49
2023-03-18T14:38:38.107Z,36.78
2023-03-18T14:41:16.620Z,36.91
2023-03-18T14:44:00.914Z,37.77
2023-03-18T14:46:33.790Z,38.36
2023-03-18T14:49:00.661Z,37.85
2023-03-18T14:51:30.162Z,36.52
2023-03-18T14:54:05.391Z,36.61
2023-03-18T14:56:42.568Z,37.05
2023-03-18T14:59:15.475Z,36.19
2023-03-18T15:01:47.083Z,36.56
2023-03-18T15:04:23.649Z,36.67
2023-03-18T15:06:52.110Z,36.29
2023-03-18T15:09:24.032Z,37.02
2023-03-18T15:11:50.945Z,36.90
2023-03-18T15:14:29.910Z,36.88
2023-03-18T15:16:59.872Z,36.46
2023-03-18T15:19:28.809Z,36.15
2023-03-18T15:21:58.468Z,36.35
2023-03-18T15:24:27.040Z,36.06
2023-03-18T15:27:14.712Z,35.92
2023-03-18T15:29:55.760Z,34.95
2023-03-18T15:32:34.194Z,35.70
2023-03-18T15:35:15.873Z,36.47
2023-03-18T15:37:44.664Z,37.26
2023-03-18T15:40:23.425Z,37.01
2023-03-18T15:42:50.157Z,37.55
2023-03-18T15:45:22.225Z,37.72
2023-03-18T15:47:48.956Z,37.90
2023-03-18T15:50:18.486Z,37.95
2023-03-18T15:52:46.967Z,38.31
2023-03-18T15:55:32.217Z,36.88
2023-03-18T15:57:59.775Z,38.18
2023-03-18T16:00:27.003Z,36.45
2023-03-18T16:02:53.764Z,38.12
2023-03-18T16:05:26.036Z,36.82
2023-03-18T16:07:52.944Z,38.44
2023-03-18T16:10:21.598Z,38.77
2023-03-18T16:12:53.997Z,37.57
2023-03-18T16:15:23.227Z,37.32
2023-03-18T16:17:52.025Z,38.96
2023-03-18T16:20:30.342Z,37.83
2023-03-18T16:22:57.099Z,37.91
2023-03-18T16:25:25.025Z,38.19
2023-03-18T16:27:55.388Z,39.07
2023-03-18T16:30:24.624Z,37.32
2023-03-18T16:32:52.971Z,38.21
2023-03-18T16:35:22.414Z,37.88
2023-03-18T16:37:49.234Z,39.73
2023-03-18T16:40:18.949Z,40.35
2023-03-18T16:42:46.560Z,40.46
2023-03-18T16:45:16.636Z,40.78
2023-03-18T16:47:45.102Z,40.79
2023-03-18T16:50:22.977Z,41.40
2023-03-18T16:52:50.721Z,40.81
2023-03-18T16:55:18.969Z,41.62
2023-03-18T16:57:59.183Z,42.24
2023-03-18T17:00:28.453Z,41.61
2023-03-18T17:02:55.065Z,42.23
2023-03-18T17:05:22.116Z,41.31
2023-03-18T17:07:49.792Z,41.74
2023-03-18T17:10:19.845Z,42.09
2023-03-18T17:12:54.485Z,42.52
2023-03-18T17:15:25.686Z,42.31
2023-03-18T17:17:52.674Z,42.05
2023-03-18T17:20:21.488Z,42.68
2023-03-18T17:22:48.596Z,43.58
2023-03-18T17:25:15.756Z,43.27
2023-03-18T17:28:05.840Z,43.40
2023-03-18T17:30:40.144Z,44.01
2023-03-18T17:33:21.775Z,43.29
2023-03-18T17:35:48.412Z,44.59
2023-03-18T17:38:15.720Z,44.13
2023-03-18T17:40:42.903Z,43.45
2023-03-18T17:43:22.420Z,43.75
2023-03-18T17:45:49.092Z,43.52
2023-03-18T17:48:15.821Z,44.27
2023-03-18T17:50:43.507Z,45.77
2023-03-18T17:53:23.880Z,45.10
2023-03-18T17:55:50.784Z,45.72
2023-03-18T17:58:19.602Z,45.88
2023-03-18T18:00:47.191Z,46.79
2023-03-18T18:03:21.148Z,47.89
2023-03-18T18:05:48.005Z,46.93
2023-03-18T18:08:18.550Z,46.60
2023-03-18T18:10:45.589Z,47.97
2023-03-18T18:13:18.433Z,47.79
2023-03-18T18:15:46.532Z,47.74
2023-03-18T18:18:23.474Z,48.55
2023-03-18T18:21:01.680Z,47.24
2023-03-18T18:23:34.268Z,47.79
2023-03-18T18:26:04.276Z,48.66
2023-03-18T18:28:35.991Z,48.15
2023-03-18T18:31:05.258Z,47.84
2023-03-18T18:33:32.773Z,48.90
2023-03-18T18:36:00.263Z,48.92
2023-03-18T18:38:27.591Z,49.81
2023-03-18T18:40:55.797Z,48.15
2023-03-18T18:43:24.391Z,48.40
2023-03-18T18:45:52.883Z,49.24
2023-03-18T18:48:24.945Z,50.57
2023-03-18T18:50:51.617Z,49.18
2023-03-18T18:53:34.054Z,50.82
2023-03-18T18:56:22.138Z,51.36
2023-03-18T18:58:51.023Z,50.37
2023-03-18T19:01:18.573Z,51.25
2023-03-18T19:03:45.869Z,50.68
2023-03-18T19:06:39.104Z,51.85
2023-03-18T19:09:16.239Z,51.17
2023-03-18T19:11:42.879Z,50.95
2023-03-18T19:14:29.231Z,52.38
2023-03-18T19:16:59.526Z,51.09
2023-03-18T19:19:29.313Z,51.38
2023-03-18T19:21:56.107Z,52.19
2023-03-18T19:24:27.470Z,51.96
2023-03-18T19:26:59.398Z,52.65
2023-03-18T19:29:26.660Z,52.35
2023-03-18T19:31:53.297Z,52.68
2023-03-18T19:34:20.942Z,52.96
2023-03-18T19:36:49.582Z,52.68
2023-03-18T19:39:18.526Z,52.71
2023-03-18T19:41:46.505Z,52.44
2023-03-18T19:44:22.072Z,53.20
2023-03-18T19:46:50.288Z,54.04
2023-03-18T19:49:33.250Z,53.75
2023-03-18T19:52:00.390Z,53.82
2023-03-18T19:54:32.818Z,54.35
2023-03-18T19:57:05.369Z,53.20
2023-03-18T19:59:38.595Z,54.22
2023-03-18T20:02:19.531Z,54.74
2023-03-18T20:04:50.018Z,55.93
2023-03-18T20:07:18.554Z,56.37
2023-03-18T20:09:45.724Z,55.52
2023-03-18T20:12:22.066Z,56.16
2023-03-18T20:14:49.098Z,57.00
2023-03-18T20:17:29.551Z,56.82
2023-03-18T20:19:56.472Z,56.93
2023-03-18T20:22:28.025Z,57.37
2023-03-18T20:24:54.730Z,57.07
2023-03-18T20:27:21.875Z,56.12
2023-03-18T20:29:49.199Z,57.02
2023-03-18T20:32:16.016Z,58.07
2023-03-18T20:34:42.814Z,58.22
2023-03-18T20:37:21.333Z,57.80
2023-03-18T20:39:49.448Z,57.94
2023-03-18T20:42:17.185Z,57.63
2023-03-18T20:44:46.895Z,57.72
2023-03-18T20:47:13.871Z,57.90
2023-03-18T20:49:41.197Z,58.53
2023-03-18T20:52:20.014Z,58.32
2023-03-18T20:54:46.640Z,58.79
2023-03-18T20:57:13.263Z,58.64
2023-03-18T20:59:39.891Z,59.16
2023-03-18T21:02:27.482Z,59.01
2023-03-18T21:04:56.337Z,59.22
2023-03-18T21:07:23.051Z,59.33
2023-03-18T21:09:49.703Z,59.16
2023-03-18T21:12:17.482Z,59.56
2023-03-18T21:14:44.452Z,60.30
2023-03-18T21:17:25.472Z,59.79
2023-03-18T21:19:55.028Z,59.91
2023-03-18T21:22:28.120Z,60.20
2023-03-18T21:24:55.256Z,60.18
2023-03-18T21:27:25.334Z,60.99
2023-03-18T21:29:53.441Z,60.46
2023-03-18T21:32:29.614Z,60.88
2023-03-18T21:34:56.466Z,60.73
2023-03-18T21:37:25.186Z,60.97
2023-03-18T21:39:52.598Z,60.94
2023-03-18T21:42:30.408Z,60.64
2023-03-18T21:44:57.027Z,61.32
2023-03-18T21:47:25.684Z,60.53
2023-03-18T21:49:52.385Z,61.65
2023-03-18T21:52:36.528Z,61.60
2023-03-18T21:55:04.734Z,61.76
2023-03-18T21:57:31.360Z,61.71
2023-03-18T21:59:58.131Z,62.04
2023-03-18T22:02:28.792Z,62.58
2023-03-18T22:04:57.802Z,62.16
2023-03-18T22:07:28.319Z,61.97
2023-03-18T22:09:55.727Z,62.38
2023-03-18T22:12:25.441Z,62.55
2023-03-18T22:14:53.197Z,61.92
2023-03-18T22:17:19.819Z,61.08
2023-03-18T22:19:46.453Z,61.48
2023-03-18T22:22:15.754Z,62.25
2023-03-18T22:24:42.759Z,62.77
2023-03-18T22:27:29.669Z,62.60
2023-03-18T22:29:59.155Z,63.04
2023-03-18T22:32:35.704Z,63.63
2023-03-18T22:35:04.393Z,63.46
2023-03-18T22:37:31.133Z,62.27
2023-03-18T22:40:00.453Z,63.25
2023-03-18T22:42:27.752Z,62.27
2023-03-18T22:44:54.496Z,63.47
2023-03-18T22:47:23.735Z,64.07
2023-03-18T22:49:51.221Z,63.95
2023-03-18T22:52:24.971Z,64.25
2023-03-18T22:54:55.966Z,64.50
2023-03-18T22:57:24.487Z,64.51
2023-03-18T22:59:51.105Z,65.44
2023-03-18T23:02:21.911Z,65.16
2023-03-18T23:04:49.685Z,65.46
2023-03-18T23:07:31.306Z,65.44
2023-03-18T23:10:00.392Z,66.09
2023-03-18T23:12:29.070Z,65.63
2023-03-18T23:14:56.534Z,66.09
2023-03-18T23:17:26.554Z,66.17
2023-03-18T23:19:54.638Z,67.44
2023-03-18T23:22:23.288Z,66.87
2023-03-18T23:24:49.952Z,67.15
2023-03-18T23:27:16.902Z,67.69
2023-03-18T23:29:43.543Z,67.95
2023-03-18T23:32:10.734Z,67.63
2023-03-18T23:34:37.452Z,68.16
2023-03-18T23:37:04.276Z,67.18
2023-03-18T23:39:30.973Z,67.46
2023-03-18T23:41:57.652Z,68.80
2023-03-18T23:44:24.295Z,69.49
2023-03-18T23:46:51.692Z,69.03
2023-03-18T23:49:18.478Z,68.90
2023-03-18T23:51:45.332Z,67.98
2023-03-18T23:54:12.031Z,67.63
2023-03-18T23:56:38.723Z,66.86
2023-03-18T23:59:05.657Z,67.84
